createdAt,value
2017-11-05T00:01:04.245Z,13.18
2017-11-05T00:02:21.518Z,11.35
2017-11-05T00:03:27.340Z,11.05
2017-11-05T00:04:32.673Z,12.50
2017-11-05T00:05:38.049Z,9.35
2017-11-05T00:06:43.473Z,12.95
2017-11-05T00:07:49.069Z,10.93
2017-11-05T00:08:54.366Z,14.85
2017-11-05T00:09:59.748Z,14.10
2017-11-05T00:11:05.112Z,10.40
2017-11-05T00:12:10.458Z,12.70
2017-11-05T00:13:15.676Z,11.35
2017-11-05T00:14:21.374Z,12.73
2017-11-05T00:15:26.739Z,17.12
2017-11-05T00:16:32.065Z,17.20
2017-11-05T00:17:37.257Z,8.63
2017-11-05T00:18:42.478Z,11.98
2017-11-05T00:19:47.776Z,12.90
2017-11-05T00:20:53.108Z,12.13
2017-11-05T00:21:58.716Z,12.43
2017-11-05T00:23:04.107Z,13.02
2017-11-05T00:24:09.453Z,13.60
2017-11-05T00:25:15.003Z,13.53
2017-11-05T00:26:20.246Z,10.77
2017-11-05T00:27:25.535Z,13.45
2017-11-05T00:28:30.783Z,9.25
2017-11-05T00:29:36.124Z,10.27
2017-11-05T00:30:41.348Z,12.90
2017-11-05T00:31:46.707Z,12.37
2017-11-05T00:32:52.129Z,14.18
2017-11-05T00:33:57.846Z,11.63
2017-11-05T00:35:03.139Z,16.23
2017-11-05T00:36:08.635Z,10.95
2017-11-05T00:37:13.957Z,12.65
2017-11-05T00:38:19.430Z,11.63
2017-11-05T00:39:25.039Z,12.53
2017-11-05T00:40:30.418Z,12.48
2017-11-05T00:41:35.863Z,11.95
2017-11-05T00:42:41.124Z,11.80
2017-11-05T00:43:46.298Z,14.10
2017-11-05T00:44:51.773Z,14.10
2017-11-05T00:45:57.035Z,12.10
2017-11-05T00:47:02.248Z,11.25
2017-11-05T00:48:07.528Z,13.30
2017-11-05T00:49:12.817Z,13.88
2017-11-05T00:50:18.113Z,18.98
2017-11-05T00:51:23.418Z,14.48
2017-11-05T00:52:28.653Z,15.25
2017-11-05T00:53:33.896Z,20.35
2017-11-05T00:54:39.160Z,15.50
2017-11-05T00:55:44.453Z,17.55
2017-11-05T00:56:49.861Z,16.73
2017-11-05T00:57:55.400Z,21.37
2017-11-05T00:59:00.886Z,14.50
2017-11-05T01:00:06.269Z,14.25
2017-11-05T01:01:11.600Z,18.20
2017-11-05T01:02:16.894Z,15.15
2017-11-05T01:03:22.295Z,19.65
2017-11-05T01:04:27.584Z,16.37
2017-11-05T01:05:33.046Z,17.33
2017-11-05T01:06:38.342Z,16.12
2017-11-05T01:07:44.350Z,17.10
2017-11-05T01:08:49.710Z,15.90
2017-11-05T01:09:55.185Z,15.77
2017-11-05T01:11:00.799Z,15.60
2017-11-05T01:12:06.173Z,21.08
2017-11-05T01:13:11.742Z,18.15
2017-11-05T01:14:17.649Z,16.98
2017-11-05T01:15:22.968Z,18.90
2017-11-05T01:16:28.383Z,16.35
2017-11-05T01:17:33.627Z,19.92
2017-11-05T01:18:38.899Z,21.05
2017-11-05T01:19:44.565Z,17.05
2017-11-05T01:20:49.821Z,21.62
2017-11-05T01:21:55.024Z,18.58
2017-11-05T01:23:01.130Z,15.68
2017-11-05T01:24:06.477Z,17.35
2017-11-05T01:25:11.805Z,17.10
2017-11-05T01:26:17.706Z,19.12
2017-11-05T01:27:23.228Z,17.33
2017-11-05T01:28:28.587Z,18.17
2017-11-05T01:29:34.148Z,23.80
2017-11-05T01:30:39.534Z,21.33
2017-11-05T01:31:44.971Z,20.42
2017-11-05T01:32:50.752Z,22.08
2017-11-05T01:33:56.103Z,24.77
2017-11-05T01:35:01.463Z,24.05
2017-11-05T01:36:06.959Z,23.25
2017-11-05T01:37:12.204Z,23.52
2017-11-05T01:38:17.530Z,27.52
2017-11-05T01:39:23.147Z,23.62
2017-11-05T01:40:28.438Z,26.00
2017-11-05T01:41:33.753Z,22.40
2017-11-05T01:42:39.123Z,24.33
2017-11-05T01:43:44.525Z,26.52
2017-11-05T01:44:49.924Z,24.35
2017-11-05T01:45:55.268Z,26.33
2017-11-05T01:47:00.630Z,26.50
2017-11-05T01:48:06.125Z,26.67
2017-11-05T01:49:11.412Z,27.75
2017-11-05T01:50:16.769Z,26.65
2017-11-05T01:51:22.134Z,29.98
2017-11-05T01:52:27.358Z,30.67
2017-11-05T01:53:32.609Z,26.98
2017-11-05T01:54:37.915Z,27.27
2017-11-05T01:55:43.124Z,29.80
2017-11-05T01:56:48.330Z,27.87
2017-11-05T01:57:53.529Z,32.78
2017-11-05T01:58:59.117Z,28.12
2017-11-05T02:00:04.471Z,31.35
2017-11-05T02:01:10.032Z,28.42
2017-11-05T02:02:15.386Z,27.75
2017-11-05T02:03:20.651Z,34.17
2017-11-05T02:04:25.871Z,35.03
2017-11-05T02:05:31.569Z,30.58
2017-11-05T02:06:36.857Z,34.35
2017-11-05T02:07:42.137Z,30.63
2017-11-05T02:08:47.389Z,29.27
2017-11-05T02:09:52.931Z,35.03
2017-11-05T02:10:58.179Z,35.47
2017-11-05T02:12:03.973Z,29.52
2017-11-05T02:13:09.270Z,34.05
2017-11-05T02:14:14.682Z,34.42
2017-11-05T02:15:20.034Z,34.22
2017-11-05T02:16:25.450Z,31.67
2017-11-05T02:17:31.336Z,37.67
2017-11-05T02:18:36.713Z,37.35
2017-11-05T02:19:42.175Z,34.08
2017-11-05T02:20:47.441Z,37.42
2017-11-05T02:21:52.753Z,38.03
2017-11-05T02:22:58.069Z,33.13
2017-11-05T02:24:03.841Z,32.97
2017-11-05T02:25:09.187Z,36.70
2017-11-05T02:26:14.447Z,32.70
2017-11-05T02:27:19.697Z,32.50
2017-11-05T02:28:25.219Z,38.13
2017-11-05T02:30:24.694Z,36.17
2017-11-05T02:31:30.232Z,33.42
2017-11-05T02:32:35.767Z,39.10
2017-11-05T02:33:41.589Z,34.25
2017-11-05T02:34:47.127Z,29.73
2017-11-05T02:35:52.623Z,37.33
2017-11-05T02:36:58.376Z,33.13
2017-11-05T02:38:03.939Z,36.05
2017-11-05T02:39:09.514Z,35.75
2017-11-05T02:40:14.745Z,41.72
2017-11-05T02:41:20.022Z,33.50
2017-11-05T02:42:25.260Z,32.97
2017-11-05T02:43:30.664Z,37.47
2017-11-05T02:44:35.971Z,36.85
2017-11-05T02:45:41.222Z,38.60
2017-11-05T02:46:46.771Z,35.33
2017-11-05T02:47:52.150Z,37.78
2017-11-05T02:48:57.576Z,35.05
2017-11-05T02:50:02.889Z,41.77
2017-11-05T02:51:08.343Z,36.15
2017-11-05T02:52:13.717Z,40.85
2017-11-05T02:53:19.068Z,36.78
2017-11-05T02:54:24.466Z,34.25
2017-11-05T02:55:29.803Z,30.17
2017-11-05T02:56:35.695Z,33.85
2017-11-05T02:57:40.999Z,33.88
2017-11-05T02:58:46.342Z,33.55
2017-11-05T02:59:51.868Z,33.10
2017-11-05T03:00:57.286Z,30.48
2017-11-05T03:02:02.532Z,28.73
2017-11-05T03:03:08.399Z,33.28
2017-11-05T03:04:13.708Z,31.97
2017-11-05T03:05:18.955Z,29.52
2017-11-05T03:06:24.399Z,29.37
2017-11-05T03:07:29.699Z,30.65
2017-11-05T03:08:35.372Z,29.63
2017-11-05T03:09:40.647Z,29.05
2017-11-05T03:10:45.920Z,31.12
2017-11-05T03:11:51.261Z,30.15
2017-11-05T03:12:56.598Z,30.00
2017-11-05T03:14:02.065Z,26.80
2017-11-05T03:15:07.905Z,29.33
2017-11-05T03:16:13.320Z,25.42
2017-11-05T03:17:18.634Z,24.95
2017-11-05T03:18:24.214Z,27.83
2017-11-05T03:19:29.663Z,24.37
2017-11-05T03:20:35.226Z,23.13
2017-11-05T03:21:40.909Z,25.83
2017-11-05T03:22:46.295Z,25.67
2017-11-05T03:23:51.711Z,29.73
2017-11-05T03:24:57.105Z,24.10
2017-11-05T03:26:02.524Z,25.17
2017-11-05T03:27:08.273Z,20.05
2017-11-05T03:28:13.583Z,22.35
2017-11-05T03:29:18.904Z,21.75
2017-11-05T03:30:24.165Z,23.57
2017-11-05T03:31:29.488Z,22.92
2017-11-05T03:32:35.048Z,19.08
2017-11-05T03:33:41.101Z,20.75
2017-11-05T03:34:46.396Z,23.70
2017-11-05T03:35:51.963Z,27.62
2017-11-05T03:36:57.310Z,24.48
2017-11-05T03:38:02.773Z,20.73
2017-11-05T03:39:08.020Z,30.33
2017-11-05T03:40:13.309Z,28.62
2017-11-05T03:41:18.769Z,30.77
2017-11-05T03:42:24.246Z,25.90
2017-11-05T03:43:29.604Z,25.77
2017-11-05T03:44:35.013Z,25.15
2017-11-05T03:45:40.700Z,26.67
2017-11-05T03:46:46.122Z,23.77
2017-11-05T03:47:51.617Z,26.23
2017-11-05T03:48:57.077Z,27.27
2017-11-05T03:50:02.420Z,28.80
2017-11-05T03:51:07.884Z,29.42
2017-11-05T03:52:13.449Z,29.40
2017-11-05T03:53:18.832Z,31.48
2017-11-05T03:54:24.167Z,31.85
2017-11-05T03:55:29.395Z,31.93
2017-11-05T03:56:34.630Z,28.33
2017-11-05T03:57:39.859Z,32.70
2017-11-05T03:58:45.134Z,32.78
2017-11-05T03:59:50.725Z,37.35
2017-11-05T04:00:55.960Z,30.25
2017-11-05T04:02:01.273Z,28.07
2017-11-05T04:03:06.809Z,28.25
2017-11-05T04:04:12.190Z,26.85
2017-11-05T04:05:17.579Z,28.33
2017-11-05T04:06:22.985Z,29.40
2017-11-05T04:07:28.285Z,29.85
2017-11-05T04:08:33.718Z,40.35
2017-11-05T04:09:39.485Z,32.13
2017-11-05T04:10:44.804Z,35.95
2017-11-05T04:11:50.161Z,32.40
2017-11-05T04:12:55.865Z,37.00
2017-11-05T04:14:01.073Z,37.83
2017-11-05T04:15:06.377Z,41.83
2017-11-05T04:16:12.045Z,43.67
2017-11-05T04:17:17.355Z,38.03
2017-11-05T04:18:22.569Z,43.22
2017-11-05T04:19:27.768Z,39.53
2017-11-05T04:20:33.091Z,42.85
2017-11-05T04:21:38.815Z,41.50
2017-11-05T04:22:44.138Z,42.03
2017-11-05T04:23:49.635Z,37.05
2017-11-05T04:24:54.997Z,37.38
2017-11-05T04:26:00.461Z,36.63
2017-11-05T04:27:05.800Z,35.67
2017-11-05T04:28:11.857Z,41.67
2017-11-05T04:29:17.229Z,37.10
2017-11-05T04:30:22.694Z,34.63
2017-11-05T04:31:27.993Z,31.48
2017-11-05T04:32:33.221Z,32.95
2017-11-05T04:33:38.473Z,35.22
2017-11-05T04:34:43.727Z,31.77
2017-11-05T04:35:48.975Z,35.22
2017-11-05T04:36:54.208Z,31.12
2017-11-05T04:37:59.529Z,27.70
2017-11-05T04:39:04.939Z,33.45
2017-11-05T04:40:10.577Z,27.85
2017-11-05T04:41:15.896Z,37.88
2017-11-05T04:42:21.133Z,31.35
2017-11-05T04:43:26.477Z,34.47
2017-11-05T04:44:31.774Z,36.08
2017-11-05T04:45:37.049Z,40.17
2017-11-05T04:46:42.858Z,35.10
2017-11-05T04:47:48.233Z,31.60
2017-11-05T04:48:53.595Z,30.85
2017-11-05T04:49:58.893Z,40.22
2017-11-05T04:51:04.266Z,39.88
2017-11-05T04:52:09.584Z,36.92
2017-11-05T04:53:15.133Z,37.30
2017-11-05T04:54:20.585Z,36.87
2017-11-05T04:55:25.958Z,37.40
2017-11-05T04:56:31.402Z,39.58
2017-11-05T04:57:36.784Z,33.38
2017-11-05T04:58:42.637Z,47.65
2017-11-05T04:59:48.014Z,33.15
2017-11-05T05:00:53.382Z,43.10
2017-11-05T05:01:58.841Z,44.75
2017-11-05T05:03:04.296Z,43.08
2017-11-05T05:04:09.647Z,36.67
2017-11-05T05:05:15.043Z,29.83
2017-11-05T05:06:20.526Z,35.42
2017-11-05T05:07:25.855Z,34.85
2017-11-05T05:08:31.091Z,33.80
2017-11-05T05:09:36.633Z,39.67
2017-11-05T05:10:41.905Z,31.02
2017-11-05T05:11:47.172Z,30.05
2017-11-05T05:12:52.404Z,31.00
2017-11-05T05:13:57.732Z,33.97
2017-11-05T05:15:02.994Z,33.07
2017-11-05T05:16:08.301Z,37.45
2017-11-05T05:17:13.547Z,42.70
2017-11-05T05:18:18.885Z,44.35
2017-11-05T05:19:24.127Z,44.38
2017-11-05T05:20:29.339Z,36.88
2017-11-05T05:21:35.041Z,41.90
2017-11-05T05:22:40.256Z,39.63
2017-11-05T05:23:45.548Z,46.95
2017-11-05T05:24:50.846Z,41.42
2017-11-05T05:25:56.106Z,39.38
2017-11-05T05:27:01.900Z,38.55
2017-11-05T05:28:07.132Z,32.80
2017-11-05T05:29:12.355Z,31.20
2017-11-05T05:30:17.642Z,29.55
2017-11-05T05:31:22.920Z,31.57
2017-11-05T05:32:28.228Z,25.00
2017-11-05T05:33:33.512Z,30.08
2017-11-05T05:34:38.838Z,20.55
2017-11-05T05:35:44.274Z,17.12
2017-11-05T05:36:49.512Z,16.60
2017-11-05T05:37:54.843Z,11.00
2017-11-05T05:39:00.543Z,9.93
2017-11-05T05:40:05.820Z,11.57
2017-11-05T05:41:11.118Z,11.80
2017-11-05T05:42:16.344Z,14.68
2017-11-05T05:43:21.599Z,16.33
2017-11-05T05:44:26.894Z,19.37
2017-11-05T05:45:32.557Z,18.58
2017-11-05T05:46:37.797Z,22.77
2017-11-05T05:47:43.016Z,21.77
2017-11-05T05:48:48.322Z,19.92
2017-11-05T05:49:53.713Z,25.02
2017-11-05T05:50:59.005Z,24.30
2017-11-05T05:52:04.389Z,27.23
2017-11-05T05:53:09.670Z,23.48
2017-11-05T05:54:15.070Z,29.83
2017-11-05T05:55:20.382Z,27.48
2017-11-05T05:56:25.604Z,23.48
2017-11-05T05:57:30.836Z,30.90
2017-11-05T05:58:36.166Z,30.58
2017-11-05T05:59:41.666Z,25.23
2017-11-05T06:00:47.154Z,33.47
2017-11-05T06:01:52.490Z,30.47
2017-11-05T06:02:57.792Z,34.58
2017-11-05T06:04:03.194Z,33.05
2017-11-05T06:05:08.592Z,32.40
2017-11-05T06:06:13.920Z,30.40
2017-11-05T06:07:19.300Z,34.83
2017-11-05T06:08:24.656Z,33.60
2017-11-05T06:09:30.448Z,31.25
2017-11-05T06:10:35.902Z,31.77
2017-11-05T06:11:41.269Z,31.52
2017-11-05T06:12:46.648Z,33.88
2017-11-05T06:13:52.160Z,30.17
2017-11-05T06:14:57.554Z,30.30
2017-11-05T06:16:03.368Z,29.17
2017-11-05T06:17:09.278Z,31.12
2017-11-05T06:18:14.608Z,28.70
2017-11-05T06:19:19.986Z,28.17
2017-11-05T06:20:25.253Z,29.85
2017-11-05T06:21:31.146Z,29.58
2017-11-05T06:23:32.926Z,28.58
2017-11-05T06:24:38.521Z,35.85
2017-11-05T06:25:44.191Z,33.90
2017-11-05T06:26:50.085Z,34.00
2017-11-05T06:27:55.872Z,35.03
2017-11-05T06:29:01.283Z,36.53
2017-11-05T06:30:06.657Z,36.90
2017-11-05T06:31:12.008Z,39.20
2017-11-05T06:32:17.313Z,37.60
2017-11-05T06:33:22.576Z,40.63
2017-11-05T06:34:28.365Z,42.30
2017-11-05T06:35:33.921Z,38.03
2017-11-05T06:36:39.372Z,46.60
2017-11-05T06:37:44.767Z,43.38
2017-11-05T06:38:50.279Z,41.28
2017-11-05T06:39:56.161Z,41.08
2017-11-05T06:41:01.508Z,34.53
2017-11-05T06:42:06.732Z,38.13
2017-11-05T06:43:12.438Z,35.15
2017-11-05T06:44:17.757Z,36.00
2017-11-05T06:45:23.091Z,33.35
2017-11-05T06:46:28.850Z,38.22
2017-11-05T06:47:34.412Z,39.08
2017-11-05T06:48:42.129Z,39.95
2017-11-05T06:49:48.391Z,36.20
2017-11-05T06:50:54.092Z,27.85
2017-11-05T06:52:01.032Z,30.83
2017-11-05T06:53:06.560Z,34.37
2017-11-05T06:54:12.236Z,41.80
2017-11-05T06:55:17.559Z,36.27
2017-11-05T06:56:22.821Z,29.52
2017-11-05T06:57:28.058Z,24.30
2017-11-05T06:58:33.790Z,34.53
2017-11-05T06:59:39.119Z,26.07
2017-11-05T07:00:44.424Z,30.17
2017-11-05T07:01:49.848Z,31.87
2017-11-05T07:02:55.239Z,34.85
2017-11-05T07:04:00.487Z,30.00
2017-11-05T07:05:06.249Z,28.90
2017-11-05T07:06:12.017Z,27.58
2017-11-05T07:07:17.356Z,33.97
2017-11-05T07:08:22.637Z,36.67
2017-11-05T07:09:27.953Z,28.80
2017-11-05T07:10:33.919Z,28.62
2017-11-05T07:11:39.229Z,35.00
2017-11-05T07:12:44.483Z,32.00
2017-11-05T07:13:49.780Z,30.25
2017-11-05T07:14:55.185Z,32.33
2017-11-05T07:16:00.518Z,27.83
2017-11-05T07:17:06.262Z,31.05
2017-11-05T07:18:11.966Z,32.42
2017-11-05T07:19:17.297Z,30.40
2017-11-05T07:20:22.618Z,33.72
2017-11-05T07:21:28.048Z,40.50
2017-11-05T07:22:33.635Z,32.55
2017-11-05T07:23:39.043Z,38.67
2017-11-05T07:24:44.404Z,30.42
2017-11-05T07:25:49.987Z,38.50
2017-11-05T07:26:55.881Z,31.50
2017-11-05T07:28:01.324Z,30.75
2017-11-05T07:29:06.733Z,31.40
2017-11-05T07:30:12.109Z,31.15
2017-11-05T07:31:17.416Z,37.22
2017-11-05T07:32:22.742Z,28.30
2017-11-05T07:33:27.980Z,37.00
2017-11-05T07:34:33.327Z,33.58
2017-11-05T07:35:38.699Z,33.35
2017-11-05T07:36:44.031Z,33.88
2017-11-05T07:37:49.353Z,27.70
2017-11-05T07:38:54.554Z,30.27
2017-11-05T07:39:59.809Z,31.95
2017-11-05T07:41:05.512Z,36.15
2017-11-05T07:42:10.779Z,35.67
2017-11-05T07:43:16.095Z,37.50
2017-11-05T07:44:21.392Z,37.75
2017-11-05T07:45:26.957Z,30.70
2017-11-05T07:46:32.377Z,30.65
2017-11-05T07:47:38.026Z,34.72
2017-11-05T07:48:43.270Z,44.50
2017-11-05T07:49:48.778Z,55.10
2017-11-05T07:50:54.122Z,55.83
2017-11-05T07:52:00.218Z,56.37
2017-11-05T07:53:08.088Z,72.00
2017-11-05T07:54:13.846Z,69.25
2017-11-05T07:55:20.206Z,72.10
2017-11-05T07:56:26.939Z,84.30
2017-11-05T07:57:32.224Z,94.95
2017-11-05T07:58:37.485Z,86.35
2017-11-05T07:59:43.139Z,61.63
2017-11-05T08:00:48.827Z,59.45
2017-11-05T08:01:54.150Z,59.13
2017-11-05T08:02:59.590Z,55.30
2017-11-05T08:04:04.992Z,35.97
2017-11-05T08:05:10.786Z,35.15
2017-11-05T08:06:16.139Z,32.50
2017-11-05T08:07:21.500Z,27.10
2017-11-05T08:08:26.831Z,25.33
2017-11-05T08:09:32.164Z,28.50
2017-11-05T08:10:37.503Z,27.27
2017-11-05T08:11:43.310Z,26.50
2017-11-05T08:12:48.597Z,28.02
2017-11-05T08:13:54.005Z,23.87
2017-11-05T08:14:59.312Z,27.05
2017-11-05T08:16:04.709Z,22.02
2017-11-05T08:17:10.436Z,21.50
2017-11-05T08:18:15.870Z,21.27
2017-11-05T08:19:21.352Z,21.70
2017-11-05T08:20:26.800Z,23.20
2017-11-05T08:21:32.326Z,18.58
2017-11-05T08:22:37.693Z,19.03
2017-11-05T08:23:43.361Z,19.92
2017-11-05T08:24:48.675Z,17.02
2017-11-05T08:25:54.133Z,13.90
2017-11-05T08:26:59.433Z,16.85
2017-11-05T08:28:04.751Z,14.80
2017-11-05T08:29:10.051Z,12.15
2017-11-05T08:30:15.385Z,13.90
2017-11-05T08:31:20.713Z,14.77
2017-11-05T08:32:26.128Z,17.40
2017-11-05T08:33:31.464Z,17.90
2017-11-05T08:34:36.828Z,23.90
2017-11-05T08:35:42.036Z,16.87
2017-11-05T08:36:47.318Z,17.20
2017-11-05T08:37:52.604Z,19.12
2017-11-05T08:38:57.871Z,12.70
2017-11-05T08:40:03.260Z,15.30
2017-11-05T08:41:08.569Z,19.03
2017-11-05T08:42:14.043Z,15.77
2017-11-05T08:43:19.334Z,14.75
2017-11-05T08:44:24.612Z,13.90
2017-11-05T08:45:29.993Z,14.23
2017-11-05T08:46:35.391Z,9.52
2017-11-05T08:47:41.092Z,11.65
2017-11-05T08:48:46.468Z,12.93
2017-11-05T08:49:51.903Z,10.18
2017-11-05T08:50:57.349Z,9.82
2017-11-05T08:52:02.658Z,15.02
2017-11-05T08:53:08.107Z,12.00
2017-11-05T08:54:13.893Z,11.70
2017-11-05T08:55:19.281Z,10.63
2017-11-05T08:56:24.649Z,6.82
2017-11-05T08:57:29.983Z,7.72
2017-11-05T08:58:35.383Z,12.73
2017-11-05T08:59:41.250Z,7.23
2017-11-05T09:00:46.641Z,6.70
2017-11-05T09:01:52.163Z,12.03
2017-11-05T09:02:57.558Z,6.85
2017-11-05T09:04:03.000Z,8.35
2017-11-05T09:05:08.325Z,9.25
2017-11-05T09:06:14.193Z,11.25
2017-11-05T09:07:19.555Z,8.27
2017-11-05T09:08:24.970Z,5.57
2017-11-05T09:09:30.372Z,10.93
2017-11-05T09:10:35.765Z,9.43
2017-11-05T09:11:41.170Z,8.75
2017-11-05T09:12:46.507Z,7.78
2017-11-05T09:13:51.812Z,6.55
2017-11-05T09:14:57.296Z,9.35
2017-11-05T09:16:02.767Z,8.57
2017-11-05T09:17:08.073Z,8.13
2017-11-05T09:18:13.444Z,8.10
2017-11-05T09:19:18.858Z,8.85
2017-11-05T09:20:24.197Z,12.83
2017-11-05T09:21:29.566Z,11.43
2017-11-05T09:22:34.889Z,9.55
2017-11-05T09:23:40.361Z,5.43
2017-11-05T09:24:45.727Z,9.00
2017-11-05T09:25:51.260Z,8.68
2017-11-05T09:26:56.676Z,11.20
2017-11-05T09:28:01.988Z,6.57
2017-11-05T09:29:07.401Z,8.13
2017-11-05T09:30:13.512Z,5.40
2017-11-05T09:31:18.946Z,8.82
2017-11-05T09:32:24.266Z,12.50
2017-11-05T09:33:29.561Z,9.05
2017-11-05T09:34:34.776Z,9.63
2017-11-05T09:35:40.095Z,9.93
2017-11-05T09:36:45.430Z,10.77
2017-11-05T09:37:51.211Z,10.40
2017-11-05T09:38:56.426Z,9.82
2017-11-05T09:40:01.716Z,8.65
2017-11-05T09:41:07.029Z,9.55
2017-11-05T09:42:12.344Z,5.85
2017-11-05T09:43:17.633Z,7.32
2017-11-05T09:44:23.408Z,8.60
2017-11-05T09:45:28.750Z,8.00
2017-11-05T09:46:34.003Z,9.75
2017-11-05T09:47:39.411Z,13.57
2017-11-05T09:48:44.743Z,9.57
2017-11-05T09:49:50.153Z,7.80
2017-11-05T09:50:55.533Z,8.35
2017-11-05T09:52:01.036Z,5.30
2017-11-05T09:53:06.630Z,8.10
2017-11-05T09:54:11.996Z,11.30
2017-11-05T09:55:17.361Z,11.55
2017-11-05T09:56:22.721Z,7.70
2017-11-05T09:57:27.950Z,7.95
2017-11-05T09:58:33.206Z,8.35
2017-11-05T09:59:38.471Z,7.40
2017-11-05T10:00:43.722Z,6.85
2017-11-05T10:01:48.993Z,8.83
2017-11-05T10:02:54.454Z,7.18
2017-11-05T10:04:00.128Z,11.75
2017-11-05T10:05:06.255Z,12.32
2017-11-05T10:06:11.623Z,12.98
2017-11-05T10:07:17.095Z,13.88
2017-11-05T10:08:22.457Z,9.20
2017-11-05T10:09:27.782Z,9.27
2017-11-05T10:10:33.153Z,12.95
2017-11-05T10:11:38.550Z,11.43
2017-11-05T10:12:45.518Z,11.48
2017-11-05T10:13:52.101Z,10.52
2017-11-05T10:14:57.396Z,8.52
2017-11-05T10:16:02.981Z,11.20
2017-11-05T10:17:08.274Z,9.20
2017-11-05T10:18:13.508Z,7.85
2017-11-05T10:19:18.711Z,12.20
2017-11-05T10:20:23.906Z,7.62
2017-11-05T10:21:29.548Z,10.65
2017-11-05T10:22:34.943Z,11.18
2017-11-05T10:23:40.168Z,5.47
2017-11-05T10:24:45.385Z,8.75
2017-11-05T10:25:50.591Z,9.38
2017-11-05T10:26:55.830Z,9.50
2017-11-05T10:28:01.309Z,5.80
2017-11-05T10:29:06.828Z,6.10
2017-11-05T10:30:12.061Z,3.83
2017-11-05T10:31:17.309Z,10.50
2017-11-05T10:32:22.787Z,8.10
2017-11-05T10:33:28.142Z,8.57
2017-11-05T10:34:33.478Z,6.60
2017-11-05T10:35:38.889Z,9.43
2017-11-05T10:36:44.208Z,10.83
2017-11-05T10:37:49.496Z,6.80
2017-11-05T10:38:54.874Z,7.90
2017-11-05T10:40:00.279Z,18.87
2017-11-05T10:41:05.603Z,8.07
2017-11-05T10:42:10.890Z,8.60
2017-11-05T10:43:16.168Z,9.35
2017-11-05T10:44:21.448Z,10.85
2017-11-05T10:45:26.760Z,11.30
2017-11-05T10:46:32.055Z,8.07
2017-11-05T10:47:37.336Z,10.60
2017-11-05T10:48:42.687Z,7.27
2017-11-05T10:49:47.984Z,11.32
2017-11-05T10:50:53.270Z,5.10
2017-11-05T10:51:58.961Z,8.65
2017-11-05T10:53:04.531Z,6.10
2017-11-05T10:54:09.930Z,6.75
2017-11-05T10:55:15.706Z,9.00
2017-11-05T10:56:20.889Z,7.72
2017-11-05T10:57:26.309Z,8.90
2017-11-05T10:58:31.961Z,8.68
2017-11-05T10:59:37.238Z,15.10
2017-11-05T11:00:42.830Z,10.13
2017-11-05T11:01:48.240Z,11.02
2017-11-05T11:02:53.714Z,13.05
2017-11-05T11:03:59.412Z,12.73
2017-11-05T11:05:04.768Z,11.63
2017-11-05T11:06:10.117Z,8.60
2017-11-05T11:07:15.377Z,14.45
2017-11-05T11:08:20.605Z,10.77
2017-11-05T11:09:25.789Z,7.60
2017-11-05T11:10:31.086Z,14.18
2017-11-05T11:11:36.454Z,15.55
2017-11-05T11:12:41.792Z,9.75
2017-11-05T11:13:47.094Z,15.77
2017-11-05T11:14:52.931Z,19.92
2017-11-05T11:15:58.506Z,11.43
2017-11-05T11:17:03.945Z,18.00
2017-11-05T11:18:09.559Z,16.67
2017-11-05T11:19:14.955Z,12.50
2017-11-05T11:20:20.290Z,12.95
2017-11-05T11:21:25.915Z,8.77
2017-11-05T11:22:31.241Z,12.60
2017-11-05T11:23:36.628Z,11.52
2017-11-05T11:24:41.900Z,11.52
2017-11-05T11:25:47.192Z,18.37
2017-11-05T11:26:52.537Z,12.45
2017-11-05T11:27:58.031Z,13.40
2017-11-05T11:29:03.359Z,14.60
2017-11-05T11:30:08.678Z,17.02
2017-11-05T11:31:13.930Z,16.85
2017-11-05T11:32:19.201Z,12.20
2017-11-05T11:33:24.531Z,15.73
2017-11-05T11:34:29.906Z,23.83
2017-11-05T11:35:35.272Z,13.35
2017-11-05T11:36:40.668Z,12.73
2017-11-05T11:37:46.040Z,11.25
2017-11-05T11:38:51.404Z,14.40
2017-11-05T11:39:56.672Z,12.80
2017-11-05T11:41:02.280Z,16.62
2017-11-05T11:42:07.668Z,16.23
2017-11-05T11:43:12.942Z,13.50
2017-11-05T11:44:18.139Z,11.52
2017-11-05T11:45:23.358Z,18.52
2017-11-05T11:46:28.702Z,19.00
2017-11-05T11:47:34.448Z,19.93
2017-11-05T11:48:39.759Z,13.20
2017-11-05T11:49:45.040Z,21.30
2017-11-05T11:50:50.279Z,9.50
2017-11-05T11:51:55.670Z,17.47
2017-11-05T11:53:01.025Z,17.62
2017-11-05T11:54:06.703Z,18.02
2017-11-05T11:55:12.114Z,15.30
2017-11-05T11:56:17.425Z,16.17
2017-11-05T11:57:22.737Z,17.23
2017-11-05T11:58:28.147Z,12.57
2017-11-05T11:59:33.864Z,13.00
2017-11-05T12:00:39.098Z,13.25
2017-11-05T12:01:44.432Z,13.90
2017-11-05T12:02:49.653Z,16.30
2017-11-05T12:03:55.180Z,14.23
2017-11-05T12:05:00.484Z,14.23
2017-11-05T12:06:06.381Z,16.80
2017-11-05T12:07:11.759Z,16.37
2017-11-05T12:08:17.081Z,12.07
2017-11-05T12:09:22.352Z,14.68
2017-11-05T12:10:27.638Z,23.20
2017-11-05T12:11:33.270Z,12.52
2017-11-05T12:12:38.570Z,14.45
2017-11-05T12:13:43.872Z,11.18
2017-11-05T12:14:49.309Z,11.55
2017-11-05T12:15:54.632Z,13.03
2017-11-05T12:17:00.017Z,14.23
2017-11-05T12:18:05.822Z,13.40
2017-11-05T12:19:11.178Z,14.57
2017-11-05T12:20:17.097Z,13.38
2017-11-05T12:21:22.502Z,15.55
2017-11-05T12:22:27.892Z,14.10
2017-11-05T12:23:33.917Z,18.23
2017-11-05T12:24:39.197Z,13.55
2017-11-05T12:25:44.406Z,15.10
2017-11-05T12:26:49.926Z,15.80
2017-11-05T12:27:55.236Z,16.10
2017-11-05T12:29:00.909Z,18.62
2017-11-05T12:30:06.308Z,9.27
2017-11-05T12:31:11.618Z,17.92
2017-11-05T12:32:17.227Z,17.58
2017-11-05T12:33:22.829Z,14.70
2017-11-05T12:34:28.210Z,11.02
2017-11-05T12:35:33.958Z,11.02
2017-11-05T12:36:39.647Z,14.60
2017-11-05T12:37:45.093Z,10.70
2017-11-05T12:38:50.385Z,12.05
2017-11-05T12:39:55.750Z,16.70
2017-11-05T12:41:01.030Z,12.25
2017-11-05T12:42:06.750Z,12.32
2017-11-05T12:43:11.962Z,15.73
2017-11-05T12:44:17.406Z,13.90
2017-11-05T12:45:22.690Z,13.43
2017-11-05T12:46:28.006Z,12.10
2017-11-05T12:47:33.374Z,14.80
2017-11-05T12:48:38.858Z,15.40
2017-11-05T12:49:44.299Z,12.02
2017-11-05T12:50:49.638Z,10.65
2017-11-05T12:51:54.884Z,18.50
2017-11-05T12:53:00.130Z,15.43
2017-11-05T12:54:05.771Z,17.77
2017-11-05T12:55:11.078Z,13.20
2017-11-05T12:56:16.333Z,12.85
2017-11-05T12:57:21.626Z,18.02
2017-11-05T12:58:27.169Z,14.02
2017-11-05T12:59:32.526Z,13.13
2017-11-05T13:00:38.234Z,15.30
2017-11-05T13:01:43.891Z,18.98
2017-11-05T13:02:49.254Z,13.43
2017-11-05T13:03:54.627Z,14.07
2017-11-05T13:04:59.992Z,11.50
2017-11-05T13:06:05.934Z,14.00
2017-11-05T13:07:11.248Z,19.73
2017-11-05T13:08:16.607Z,12.13
2017-11-05T13:09:21.899Z,19.67
2017-11-05T13:10:27.216Z,16.20
2017-11-05T13:11:32.598Z,15.65
2017-11-05T13:12:38.247Z,14.50
2017-11-05T13:13:43.577Z,12.57
2017-11-05T13:14:48.889Z,13.90
2017-11-05T13:15:54.188Z,14.20
2017-11-05T13:16:59.506Z,16.73
2017-11-05T13:18:04.900Z,20.02
2017-11-05T13:19:10.230Z,12.18
2017-11-05T13:20:15.667Z,18.65
2017-11-05T13:21:21.021Z,15.13
2017-11-05T13:22:26.525Z,18.25
2017-11-05T13:23:32.118Z,11.45
2017-11-05T13:24:37.722Z,12.10
2017-11-05T13:25:43.125Z,16.55
2017-11-05T13:26:48.525Z,9.23
2017-11-05T13:27:54.109Z,12.50
2017-11-05T13:28:59.380Z,13.73
2017-11-05T13:30:04.664Z,17.15
2017-11-05T13:31:09.942Z,13.85
2017-11-05T13:32:15.229Z,17.55
2017-11-05T13:33:20.719Z,17.17
2017-11-05T13:34:25.989Z,13.20
2017-11-05T13:35:31.334Z,13.80
2017-11-05T13:36:36.852Z,14.50
2017-11-05T13:37:43.308Z,17.90
2017-11-05T13:38:48.731Z,9.88
2017-11-05T13:39:54.098Z,13.45
2017-11-05T13:40:59.418Z,14.17
2017-11-05T13:42:04.878Z,12.68
2017-11-05T13:43:10.210Z,12.40
2017-11-05T13:44:15.961Z,10.90
2017-11-05T13:45:21.452Z,12.50
2017-11-05T13:46:26.788Z,9.80
2017-11-05T13:47:32.063Z,11.43
2017-11-05T13:48:37.630Z,12.67
2017-11-05T13:49:42.969Z,13.62
2017-11-05T13:50:48.510Z,11.80
2017-11-05T13:51:53.785Z,10.65
2017-11-05T13:52:59.014Z,14.55
2017-11-05T13:54:04.325Z,12.20
2017-11-05T13:55:09.652Z,10.77
2017-11-05T13:56:14.961Z,13.02
2017-11-05T13:57:20.300Z,13.93
2017-11-05T13:58:25.525Z,16.07
2017-11-05T13:59:30.743Z,17.27
2017-11-05T14:00:36.026Z,12.20
2017-11-05T14:01:41.414Z,16.77
2017-11-05T14:02:46.710Z,17.90
2017-11-05T14:03:52.327Z,15.98
2017-11-05T14:04:57.765Z,13.13
2017-11-05T14:06:03.165Z,13.45
2017-11-05T14:07:08.564Z,14.70
2017-11-05T14:08:13.931Z,20.33